createdAt,value
2022-11-15T00:00:56.540Z,7.33
2022-11-15T00:03:41.432Z,7.34
2022-11-15T00:06:26.294Z,7.32
2022-11-15T00:09:11.239Z,7.32
2022-11-15T00:11:56.101Z,7.32
2022-11-15T00:14:41.097Z,7.31
2022-11-15T00:17:25.972Z,7.33
2022-11-15T00:20:12.345Z,7.31
2022-11-15T00:22:57.527Z,7.33
2022-11-15T00:25:42.228Z,7.30
2022-11-15T00:28:27.229Z,7.33
2022-11-15T00:31:15.412Z,7.33
2022-11-15T00:34:00.385Z,7.34
2022-11-15T00:36:45.287Z,7.34
2022-11-15T00:39:30.226Z,7.38
2022-11-15T00:42:15.150Z,7.39
2022-11-15T00:45:00.087Z,7.37
2022-11-15T00:47:46.837Z,7.35
2022-11-15T00:50:32.012Z,7.38
2022-11-15T00:53:17.652Z,7.42
2022-11-15T00:56:02.841Z,7.41
2022-11-15T00:58:47.923Z,7.39
2022-11-15T01:01:33.772Z,7.42
2022-11-15T01:04:18.788Z,7.47
2022-11-15T01:07:03.891Z,7.43
2022-11-15T01:09:49.107Z,7.37
2022-11-15T01:12:33.915Z,7.42
2022-11-15T01:15:19.078Z,7.40
2022-11-15T01:18:04.278Z,7.42
2022-11-15T01:20:49.420Z,7.37
2022-11-15T01:23:35.098Z,7.44
2022-11-15T01:26:20.742Z,7.46
2022-11-15T01:29:05.959Z,7.49
2022-11-15T01:31:50.835Z,7.47
2022-11-15T01:34:35.730Z,7.51
2022-11-15T01:37:20.880Z,7.51
2022-11-15T01:40:06.345Z,7.49
2022-11-15T01:42:51.208Z,7.51
2022-11-15T01:45:36.214Z,7.55
2022-11-15T01:48:22.857Z,7.60
2022-11-15T01:51:12.942Z,7.63
2022-11-15T01:54:02.849Z,7.64
2022-11-15T01:56:56.003Z,7.61
2022-11-15T01:59:44.287Z,7.61
2022-11-15T02:02:29.382Z,7.64
2022-11-15T02:05:14.366Z,7.57
2022-11-15T02:08:00.898Z,7.62
2022-11-15T02:10:49.468Z,7.68
2022-11-15T02:13:37.702Z,7.70
2022-11-15T02:16:43.836Z,7.73
2022-11-15T02:19:54.813Z,7.75
2022-11-15T02:23:04.847Z,7.69
2022-11-15T02:26:01.823Z,7.71
2022-11-15T02:28:59.722Z,7.76
2022-11-15T02:32:29.792Z,7.78
2022-11-15T02:35:49.495Z,7.83
2022-11-15T02:38:51.949Z,7.83
2022-11-15T02:41:52.841Z,7.86
2022-11-15T02:44:44.376Z,7.88
2022-11-15T02:47:33.667Z,7.94
2022-11-15T02:50:22.296Z,8.00
2022-11-15T02:53:08.805Z,8.01
2022-11-15T02:55:55.797Z,8.06
2022-11-15T02:58:58.339Z,8.06
2022-11-15T03:02:20.601Z,8.10
2022-11-15T03:05:16.523Z,8.14
2022-11-15T03:08:17.411Z,8.18
2022-11-15T03:11:09.928Z,8.20
2022-11-15T03:14:04.009Z,8.28
2022-11-15T03:17:13.092Z,8.27
2022-11-15T03:20:01.365Z,8.31
2022-11-15T03:22:49.842Z,8.37
2022-11-15T03:25:37.423Z,8.39
2022-11-15T03:28:32.906Z,8.40
2022-11-15T03:31:43.435Z,8.45
2022-11-15T03:34:45.341Z,8.48
2022-11-15T03:37:36.741Z,8.49
2022-11-15T03:40:30.261Z,8.51
2022-11-15T03:43:35.336Z,8.58
2022-11-15T03:46:34.291Z,8.59
2022-11-15T03:49:28.884Z,8.61
2022-11-15T03:52:18.142Z,8.68
2022-11-15T03:55:05.468Z,8.66
2022-11-15T03:57:57.821Z,8.65
2022-11-15T04:00:43.315Z,8.65
2022-11-15T04:03:28.600Z,8.71
2022-11-15T04:06:13.869Z,8.73
2022-11-15T04:08:58.730Z,8.78
2022-11-15T04:11:43.523Z,8.82
2022-11-15T04:14:28.446Z,8.77
2022-11-15T04:17:13.209Z,8.81
2022-11-15T04:20:16.772Z,8.86
2022-11-15T04:23:23.838Z,8.90
2022-11-15T04:26:12.038Z,8.96
2022-11-15T04:29:15.671Z,8.96
2022-11-15T04:32:01.499Z,9.00
2022-11-15T04:34:46.600Z,9.02
2022-11-15T04:37:31.321Z,9.03
2022-11-15T04:40:16.243Z,9.07
2022-11-15T04:43:03.870Z,9.07
2022-11-15T04:45:49.059Z,9.11
2022-11-15T04:48:33.917Z,9.15
2022-11-15T04:51:18.779Z,9.17
2022-11-15T04:54:03.697Z,9.21
2022-11-15T04:56:48.809Z,9.24
2022-11-15T04:59:33.730Z,9.25
2022-11-15T05:02:18.432Z,9.30
2022-11-15T05:05:03.338Z,9.27
2022-11-15T05:07:48.528Z,9.30
2022-11-15T05:10:33.684Z,9.31
2022-11-15T05:13:18.896Z,9.34
2022-11-15T05:16:03.940Z,9.34
2022-11-15T05:18:52.332Z,9.37
2022-11-15T05:21:37.251Z,9.38
2022-11-15T05:24:22.031Z,9.38
2022-11-15T05:27:06.856Z,9.35
2022-11-15T05:29:51.659Z,9.40
2022-11-15T05:32:37.230Z,9.41
2022-11-15T05:35:55.855Z,9.46
2022-11-15T05:38:40.819Z,9.47
2022-11-15T05:41:43.125Z,9.50
2022-11-15T05:44:28.687Z,9.55
2022-11-15T05:47:22.805Z,9.56
2022-11-15T05:50:08.182Z,9.55
2022-11-15T05:52:53.164Z,9.52
2022-11-15T05:55:39.869Z,9.56
2022-11-15T05:58:24.762Z,9.58
2022-11-15T06:01:09.963Z,9.57
2022-11-15T06:03:54.758Z,9.61
2022-11-15T06:06:39.518Z,9.64
2022-11-15T06:09:24.248Z,9.67
2022-11-15T06:12:09.138Z,9.69
2022-11-15T06:14:53.893Z,9.68
2022-11-15T06:17:38.890Z,9.71
2022-11-15T06:20:25.208Z,9.72
2022-11-15T06:23:10.216Z,9.72
2022-11-15T06:25:59.048Z,9.74
2022-11-15T06:28:43.783Z,9.78
2022-11-15T06:31:28.855Z,9.75
2022-11-15T06:34:13.623Z,9.76
2022-11-15T06:36:58.373Z,9.77
2022-11-15T06:39:43.417Z,9.78
2022-11-15T06:42:28.348Z,9.79
2022-11-15T06:45:13.127Z,9.80
2022-11-15T06:47:58.707Z,9.77
2022-11-15T06:50:43.728Z,9.82
2022-11-15T06:53:30.265Z,9.82
2022-11-15T06:56:15.621Z,9.82
2022-11-15T06:59:00.773Z,9.85
2022-11-15T07:01:45.849Z,9.86
2022-11-15T07:04:30.799Z,9.83
2022-11-15T07:07:16.019Z,9.83
2022-11-15T07:10:00.844Z,9.81
2022-11-15T07:12:49.564Z,9.80
2022-11-15T07:15:34.422Z,9.79
2022-11-15T07:18:19.487Z,9.80
2022-11-15T07:21:07.290Z,9.84
2022-11-15T07:23:52.478Z,9.87
2022-11-15T07:26:37.607Z,9.80
2022-11-15T07:29:22.393Z,9.83
2022-11-15T07:32:07.349Z,9.77
2022-11-15T07:34:52.194Z,9.81
2022-11-15T07:37:36.982Z,9.81
2022-11-15T07:40:22.068Z,9.82
2022-11-15T07:43:08.376Z,9.85
2022-11-15T07:45:58.589Z,9.84
2022-11-15T07:48:45.405Z,9.79
2022-11-15T07:51:30.711Z,9.85
2022-11-15T07:54:15.301Z,9.85
2022-11-15T07:57:05.548Z,9.84
2022-11-15T07:59:51.805Z,9.87
2022-11-15T08:02:36.927Z,9.88
2022-11-15T08:05:22.053Z,9.88
2022-11-15T08:08:08.835Z,9.93
2022-11-15T08:10:53.732Z,9.97
2022-11-15T08:13:38.487Z,9.96
2022-11-15T08:16:23.500Z,9.98
2022-11-15T08:19:08.164Z,10.00
2022-11-15T08:21:52.992Z,10.02
2022-11-15T08:24:37.735Z,10.02
2022-11-15T08:27:23.261Z,9.96
2022-11-15T08:30:08.597Z,10.00
2022-11-15T08:32:54.689Z,10.04
2022-11-15T08:35:41.226Z,10.04
2022-11-15T08:38:27.398Z,10.08
2022-11-15T08:41:17.628Z,10.15
2022-11-15T08:44:03.124Z,10.14
2022-11-15T08:46:47.991Z,10.13
2022-11-15T08:49:32.667Z,10.18
2022-11-15T08:52:17.566Z,10.21
2022-11-15T08:55:02.317Z,10.18
2022-11-15T08:57:47.075Z,10.24
2022-11-15T09:00:32.025Z,10.25
2022-11-15T09:03:17.264Z,10.25
2022-11-15T09:06:02.071Z,10.19
2022-11-15T09:08:48.398Z,10.28
2022-11-15T09:11:33.557Z,10.26
2022-11-15T09:14:18.536Z,10.33
2022-11-15T09:17:04.198Z,10.44
2022-11-15T09:19:48.961Z,10.40
2022-11-15T09:22:33.864Z,10.40
2022-11-15T09:25:18.629Z,10.45
2022-11-15T09:31:10.299Z,10.53
2022-11-15T09:33:55.693Z,10.61
2022-11-15T09:36:40.525Z,10.61
2022-11-15T09:39:25.767Z,10.69
2022-11-15T09:42:28.993Z,10.76
2022-11-15T09:45:35.351Z,10.69
2022-11-15T09:49:01.326Z,10.83
2022-11-15T09:51:52.168Z,10.88
2022-11-15T09:54:52.210Z,11.00
2022-11-15T09:57:22.313Z,11.14
2022-11-15T09:59:51.362Z,11.10
2022-11-15T10:02:48.538Z,11.12
2022-11-15T10:05:19.968Z,10.96
2022-11-15T10:08:24.072Z,10.87
2022-11-15T10:11:22.664Z,10.85
2022-11-15T10:13:51.162Z,10.77
2022-11-15T10:16:38.825Z,10.86
2022-11-15T10:19:15.602Z,10.97
2022-11-15T10:22:04.977Z,11.06
2022-11-15T10:24:37.999Z,11.14
2022-11-15T10:27:14.300Z,11.11
2022-11-15T10:29:49.052Z,11.03
2022-11-15T10:32:19.067Z,11.04
2022-11-15T10:34:48.716Z,10.99
2022-11-15T10:37:15.612Z,10.97
2022-11-15T10:42:29.486Z,11.02
2022-11-15T10:44:56.027Z,11.07
2022-11-15T10:47:29.107Z,11.09
2022-11-15T10:49:57.100Z,11.07
2022-11-15T10:52:25.438Z,11.17
2022-11-15T10:55:22.201Z,11.25
2022-11-15T10:57:54.711Z,11.34
2022-11-15T11:00:20.981Z,11.35
2022-11-15T11:02:56.419Z,11.34
2022-11-15T11:05:41.804Z,11.31
2022-11-15T11:08:23.702Z,11.25
2022-11-15T11:11:01.950Z,11.33
2022-11-15T11:13:32.283Z,11.33
2022-11-15T11:16:20.125Z,11.34
2022-11-15T11:19:14.181Z,11.52
2022-11-15T11:22:06.440Z,11.68
2022-11-15T11:24:43.305Z,11.72
2022-11-15T11:27:24.951Z,11.66
2022-11-15T11:30:07.203Z,11.61
2022-11-15T11:33:29.674Z,11.72
2022-11-15T11:35:58.715Z,11.70
2022-11-15T11:38:49.757Z,11.57
2022-11-15T11:41:31.693Z,11.50
2022-11-15T11:44:26.008Z,11.51
2022-11-15T11:46:55.067Z,11.58
2022-11-15T11:49:32.012Z,11.53
2022-11-15T11:52:32.443Z,11.56
2022-11-15T11:55:15.577Z,11.66
2022-11-15T11:58:05.353Z,11.80
2022-11-15T12:00:36.996Z,11.76
2022-11-15T12:03:26.391Z,11.68
2022-11-15T12:05:58.070Z,11.63
2022-11-15T12:08:50.354Z,11.58
2022-11-15T12:11:35.177Z,11.65
2022-11-15T12:14:06.467Z,11.62
2022-11-15T12:16:34.173Z,11.63
2022-11-15T12:19:03.233Z,11.68
2022-11-15T12:21:53.864Z,11.77
2022-11-15T12:24:30.211Z,11.75
2022-11-15T12:27:06.329Z,11.64
2022-11-15T12:29:39.866Z,11.67
2022-11-15T12:32:18.299Z,11.77
2022-11-15T12:34:48.891Z,11.81
2022-11-15T12:37:36.617Z,11.68
2022-11-15T12:40:25.585Z,11.73
2022-11-15T12:43:02.409Z,11.71
2022-11-15T12:45:34.070Z,11.77
2022-11-15T12:48:18.469Z,11.81
2022-11-15T12:50:58.899Z,11.83
2022-11-15T12:53:25.382Z,11.80
2022-11-15T12:56:07.049Z,11.85
2022-11-15T12:58:59.405Z,11.88
2022-11-15T13:01:35.074Z,11.93
2022-11-15T13:04:19.906Z,11.94
2022-11-15T13:06:56.818Z,11.96
2022-11-15T13:09:38.395Z,11.99
2022-11-15T13:12:09.626Z,12.00
2022-11-15T13:14:43.039Z,12.06
2022-11-15T13:17:40.668Z,12.02
2022-11-15T13:20:06.974Z,11.84
2022-11-15T13:22:52.741Z,11.78
2022-11-15T13:25:40.443Z,11.85
2022-11-15T13:28:16.031Z,11.88
2022-11-15T13:30:48.461Z,11.88
2022-11-15T13:33:38.257Z,11.94
2022-11-15T13:36:10.065Z,11.97
2022-11-15T13:38:39.200Z,11.94
2022-11-15T13:41:21.230Z,11.95
2022-11-15T13:43:49.544Z,12.00
2022-11-15T13:46:29.819Z,11.95
2022-11-15T13:48:59.020Z,11.90
2022-11-15T13:51:55.289Z,11.93
2022-11-15T13:54:28.552Z,11.87
2022-11-15T13:57:00.530Z,11.83
2022-11-15T13:59:31.355Z,11.74
2022-11-15T14:02:02.249Z,11.75
2022-11-15T14:04:31.031Z,11.74
2022-11-15T14:06:59.602Z,11.64
2022-11-15T14:09:38.387Z,11.67
2022-11-15T14:12:23.287Z,11.62
2022-11-15T14:14:49.671Z,11.61
2022-11-15T14:17:36.531Z,11.59
2022-11-15T14:20:19.653Z,11.55
2022-11-15T14:22:58.424Z,11.55
2022-11-15T14:25:29.893Z,11.60
2022-11-15T14:28:23.478Z,11.51
2022-11-15T14:30:52.531Z,11.49
2022-11-15T14:33:24.767Z,11.53
2022-11-15T14:35:52.481Z,11.49
2022-11-15T14:38:19.325Z,11.52
2022-11-15T14:40:45.787Z,11.45
2022-11-15T14:43:12.856Z,11.46
2022-11-15T14:45:40.374Z,11.47
2022-11-15T14:48:06.819Z,11.42
2022-11-15T14:50:34.404Z,11.42
2022-11-15T14:53:01.344Z,11.42
2022-11-15T14:55:36.855Z,11.46
2022-11-15T14:58:04.936Z,11.44
2022-11-15T15:00:35.253Z,11.47
2022-11-15T15:03:02.361Z,11.48
2022-11-15T15:05:42.968Z,11.46
2022-11-15T15:08:10.048Z,11.38
2022-11-15T15:10:45.268Z,11.36
2022-11-15T15:13:20.506Z,11.42
2022-11-15T15:15:47.884Z,11.35
2022-11-15T15:18:14.265Z,11.37
2022-11-15T15:20:42.835Z,11.35
2022-11-15T15:23:17.917Z,11.39
2022-11-15T15:25:46.336Z,11.35
2022-11-15T15:28:13.824Z,11.37
2022-11-15T15:30:40.246Z,11.24
2022-11-15T15:33:07.100Z,11.26
2022-11-15T15:35:34.818Z,11.28
2022-11-15T15:38:01.852Z,11.34
2022-11-15T15:40:30.748Z,11.37
2022-11-15T15:42:57.084Z,11.34
2022-11-15T15:45:23.600Z,11.29
2022-11-15T15:47:52.990Z,11.30
2022-11-15T15:50:30.346Z,11.37
2022-11-15T15:53:00.345Z,11.35
2022-11-15T15:55:27.468Z,11.37
2022-11-15T15:57:54.438Z,11.45
2022-11-15T16:00:22.204Z,11.47
2022-11-15T16:02:48.646Z,11.46
2022-11-15T16:05:18.464Z,11.44
2022-11-15T16:07:45.095Z,11.45
2022-11-15T16:10:23.190Z,11.46
2022-11-15T16:12:49.940Z,11.46
2022-11-15T16:15:16.832Z,11.46
2022-11-15T16:18:12.431Z,11.45
2022-11-15T16:20:45.279Z,11.53
2022-11-15T16:23:13.917Z,11.53
2022-11-15T16:25:48.459Z,11.46
2022-11-15T16:28:34.210Z,11.51
2022-11-15T16:31:04.218Z,11.57
2022-11-15T16:33:31.384Z,11.56
2022-11-15T16:35:58.384Z,11.63
2022-11-15T16:38:25.001Z,11.58
2022-11-15T16:40:51.437Z,11.62
2022-11-15T16:43:18.256Z,11.64
2022-11-15T16:45:44.801Z,11.65
2022-11-15T16:48:25.878Z,11.65
2022-11-15T16:50:59.506Z,11.64
2022-11-15T16:53:27.333Z,11.62
2022-11-15T16:55:55.043Z,11.61
2022-11-15T16:58:21.444Z,11.61
2022-11-15T17:00:53.175Z,11.55
2022-11-15T17:03:20.195Z,11.54
2022-11-15T17:05:46.590Z,11.55
2022-11-15T17:08:12.947Z,11.46
2022-11-15T17:10:41.591Z,11.42
2022-11-15T17:13:13.150Z,11.36
2022-11-15T17:15:39.986Z,11.36
2022-11-15T17:18:06.726Z,11.34
2022-11-15T17:20:33.197Z,11.31
2022-11-15T17:22:59.558Z,11.24
2022-11-15T17:25:25.927Z,11.22
2022-11-15T17:27:52.340Z,11.15
2022-11-15T17:30:20.179Z,11.10
2022-11-15T17:32:47.803Z,11.04
2022-11-15T17:35:15.847Z,11.03
2022-11-15T17:37:43.452Z,11.04
2022-11-15T17:40:10.518Z,10.99
2022-11-15T17:42:36.888Z,10.99
2022-11-15T17:45:09.272Z,10.98
2022-11-15T17:47:36.475Z,10.91
2022-11-15T17:50:02.921Z,10.83
2022-11-15T17:52:29.393Z,10.81
2022-11-15T17:54:55.739Z,10.82
2022-11-15T17:57:22.137Z,10.84
2022-11-15T17:59:48.967Z,10.81
2022-11-15T18:02:15.353Z,10.75
2022-11-15T18:04:41.813Z,10.74
2022-11-15T18:07:08.254Z,10.73
2022-11-15T18:09:34.653Z,10.66
2022-11-15T18:12:01.121Z,10.63
2022-11-15T18:14:27.468Z,10.62
2022-11-15T18:16:54.886Z,10.64
2022-11-15T18:19:21.386Z,10.71
2022-11-15T18:21:57.191Z,10.69
2022-11-15T18:24:25.691Z,10.66
2022-11-15T18:26:52.344Z,10.66
2022-11-15T18:29:19.787Z,10.61
2022-11-15T18:31:49.937Z,10.59
2022-11-15T18:34:17.496Z,10.60
2022-11-15T18:36:43.927Z,10.63
2022-11-15T18:39:16.192Z,10.60
2022-11-15T18:41:44.394Z,10.67
2022-11-15T18:44:10.820Z,10.71
2022-11-15T18:46:38.780Z,10.71
2022-11-15T18:49:07.581Z,10.71
2022-11-15T18:51:35.509Z,10.70
2022-11-15T18:54:02.077Z,10.66
2022-11-15T18:56:30.614Z,10.69
2022-11-15T18:58:59.168Z,10.75
2022-11-15T19:01:28.905Z,10.76
2022-11-15T19:03:57.032Z,10.78
2022-11-15T19:06:29.194Z,10.83
2022-11-15T19:08:57.336Z,10.78
2022-11-15T19:11:32.146Z,10.82
2022-11-15T19:14:03.004Z,10.79
2022-11-15T19:16:31.035Z,10.83
2022-11-15T19:18:59.463Z,10.85
2022-11-15T19:21:27.279Z,10.82
2022-11-15T19:23:54.262Z,10.84
2022-11-15T19:26:23.859Z,10.85
2022-11-15T19:28:55.413Z,10.89
2022-11-15T19:31:23.588Z,10.91
2022-11-15T19:33:51.037Z,10.93
2022-11-15T19:36:23.145Z,10.89
2022-11-15T19:38:50.168Z,10.84
2022-11-15T19:41:19.066Z,10.82
2022-11-15T19:43:50.780Z,10.87
2022-11-15T19:46:20.244Z,10.89
2022-11-15T19:48:47.828Z,10.89
2022-11-15T19:51:19.088Z,10.93
2022-11-15T19:53:45.590Z,10.95
2022-11-15T19:56:14.619Z,10.91
2022-11-15T19:58:41.632Z,10.87
2022-11-15T20:01:18.451Z,10.91
2022-11-15T20:03:46.716Z,10.90
2022-11-15T20:06:22.270Z,10.86
2022-11-15T20:08:48.876Z,10.92
2022-11-15T20:11:16.324Z,10.91
2022-11-15T20:13:43.313Z,10.87
2022-11-15T20:16:16.516Z,10.95
2022-11-15T20:18:43.667Z,10.93
2022-11-15T20:21:10.593Z,10.96
2022-11-15T20:23:36.957Z,11.01
2022-11-15T20:26:03.330Z,11.04
2022-11-15T20:28:29.877Z,10.99
2022-11-15T20:30:58.986Z,11.02
2022-11-15T20:33:26.412Z,11.09
2022-11-15T20:35:54.098Z,11.14
2022-11-15T20:38:21.250Z,11.13
2022-11-15T20:40:49.317Z,11.12
2022-11-15T20:43:17.636Z,11.14
2022-11-15T20:45:45.552Z,11.15
2022-11-15T20:48:14.884Z,11.16
2022-11-15T20:50:43.684Z,11.17
2022-11-15T20:53:12.940Z,11.19
2022-11-15T20:55:44.522Z,11.17
2022-11-15T20:58:11.382Z,11.17
2022-11-15T21:00:38.207Z,11.14
2022-11-15T21:03:08.553Z,11.13
2022-11-15T21:05:38.574Z,11.13
2022-11-15T21:08:05.412Z,11.14
2022-11-15T21:10:50.641Z,11.18
2022-11-15T21:13:17.136Z,11.20
2022-11-15T21:15:43.494Z,11.23
2022-11-15T21:18:09.963Z,11.21
2022-11-15T21:20:36.313Z,11.18
2022-11-15T21:23:02.688Z,11.17
2022-11-15T21:25:29.264Z,11.19
2022-11-15T21:27:55.648Z,11.20
2022-11-15T21:30:22.005Z,11.18
2022-11-15T21:32:48.403Z,11.21
2022-11-15T21:35:14.891Z,11.19
2022-11-15T21:37:41.575Z,11.20
2022-11-15T21:40:10.339Z,11.20
2022-11-15T21:42:36.947Z,11.18
2022-11-15T21:45:03.747Z,11.11
2022-11-15T21:47:30.150Z,11.20
2022-11-15T21:49:56.542Z,11.23
2022-11-15T21:52:22.943Z,11.28
2022-11-15T21:54:49.348Z,11.29
2022-11-15T21:57:15.742Z,11.35
2022-11-15T22:00:02.103Z,11.34
2022-11-15T22:02:31.048Z,11.37
2022-11-15T22:04:57.452Z,11.36
2022-11-15T22:07:23.927Z,11.33
2022-11-15T22:09:50.488Z,11.31
2022-11-15T22:12:16.904Z,11.36
2022-11-15T22:14:43.248Z,11.37
2022-11-15T22:17:09.921Z,11.34
2022-11-15T22:19:51.622Z,11.36
2022-11-15T22:22:18.950Z,11.39
2022-11-15T22:24:45.301Z,11.41
2022-11-15T22:27:11.665Z,11.38
2022-11-15T22:29:38.071Z,11.41
2022-11-15T22:32:04.680Z,11.42
2022-11-15T22:34:31.058Z,11.44
2022-11-15T22:39:43.935Z,11.48
2022-11-15T22:42:10.298Z,11.38
2022-11-15T22:44:36.644Z,11.36
2022-11-15T22:47:03.035Z,11.37
2022-11-15T22:49:29.432Z,11.45
2022-11-15T22:51:55.786Z,11.44
2022-11-15T22:54:22.145Z,11.44
2022-11-15T22:56:48.556Z,11.48
2022-11-15T22:59:14.911Z,11.47
2022-11-15T23:01:41.365Z,11.41
2022-11-15T23:04:07.758Z,11.45
2022-11-15T23:06:34.123Z,11.43
2022-11-15T23:09:00.474Z,11.46
2022-11-15T23:11:45.229Z,11.47
2022-11-15T23:14:11.648Z,11.50
2022-11-15T23:16:39.748Z,11.46
2022-11-15T23:19:08.817Z,11.48
2022-11-15T23:21:56.628Z,11.48
2022-11-15T23:24:23.696Z,11.48
2022-11-15T23:26:57.187Z,11.51
2022-11-15T23:29:25.359Z,11.53
2022-11-15T23:32:12.356Z,11.55
2022-11-15T23:34:41.213Z,11.51
2022-11-15T23:37:09.788Z,11.52
2022-11-15T23:39:36.227Z,11.52
2022-11-15T23:42:08.584Z,11.49
2022-11-15T23:44:35.648Z,11.46
2022-11-15T23:47:02.087Z,11.49
2022-11-15T23:49:28.479Z,11.49
2022-11-15T23:51:55.264Z,11.51
2022-11-15T23:54:25.551Z,11.51
2022-11-15T23:56:51.903Z,11.55
2022-11-15T23:59:18.252Z,11.52
